createdAt,value
2018-12-31T00:09:25.005Z,5.4
2018-12-31T00:24:37.342Z,5.4
2018-12-31T00:39:49.822Z,5.3
2018-12-31T00:55:02.294Z,5.3
2018-12-31T01:10:14.580Z,5.3
2018-12-31T01:25:26.998Z,5.3
2018-12-31T01:40:39.401Z,5.3
2018-12-31T01:55:51.834Z,5.3
2018-12-31T02:10:59.620Z,5.3
2018-12-31T02:26:16.484Z,5.3
2018-12-31T02:41:28.950Z,5.3
2018-12-31T02:56:42.856Z,5.4
2018-12-31T03:11:53.673Z,5.3
2018-12-31T03:27:06.046Z,5.3
2018-12-31T03:42:18.391Z,5.2
2018-12-31T03:57:30.778Z,5.3
2018-12-31T04:12:43.361Z,5.3
2018-12-31T04:27:54.451Z,5.4
2018-12-31T04:43:08.046Z,5.4
2018-12-31T04:58:23.089Z,5.4
2018-12-31T05:13:32.895Z,5.5
2018-12-31T05:28:39.021Z,5.5
2018-12-31T05:43:57.755Z,5.5
2018-12-31T05:59:10.322Z,5.6
2018-12-31T06:14:22.751Z,5.7
2018-12-31T06:29:35.317Z,5.7
2018-12-31T06:44:47.931Z,5.8
2018-12-31T07:00:00.361Z,5.7
2018-12-31T07:15:12.930Z,5.9
2018-12-31T07:30:25.697Z,6.1
2018-12-31T07:45:35.552Z,6.1
2018-12-31T08:00:50.871Z,6.1
2018-12-31T08:16:05.745Z,6.3
2018-12-31T08:31:16.358Z,6.6
2018-12-31T08:46:21.501Z,6.6
2018-12-31T09:01:42.029Z,6.7
2018-12-31T09:16:54.940Z,6.7
2018-12-31T09:32:07.943Z,6.7
2018-12-31T09:47:20.758Z,6.9
2018-12-31T10:02:33.840Z,7.1
2018-12-31T10:17:46.855Z,7.1
2018-12-31T10:32:59.939Z,7.3
2018-12-31T10:48:13.114Z,7.3
2018-12-31T11:03:22.244Z,7.3
2018-12-31T11:18:39.381Z,7.5
2018-12-31T11:33:52.517Z,7.4
2018-12-31T11:49:05.654Z,7.3
2018-12-31T12:04:09.198Z,7.3
2018-12-31T12:19:31.961Z,7.6
2018-12-31T12:34:45.268Z,7.7
2018-12-31T12:49:58.546Z,7.7
2018-12-31T13:05:11.804Z,7.7
2018-12-31T13:20:23.739Z,7.6
2018-12-31T13:35:38.397Z,7.6
2018-12-31T13:50:51.660Z,7.7
2018-12-31T14:06:04.911Z,7.8
2018-12-31T14:21:10.962Z,7.6
2018-12-31T14:36:31.501Z,7.6
2018-12-31T14:51:44.787Z,7.6
2018-12-31T15:06:58.011Z,7.6
2018-12-31T15:22:11.196Z,7.5
2018-12-31T15:37:24.711Z,7.6
2018-12-31T15:52:38.287Z,7.5
2018-12-31T16:07:51.204Z,7.5
2018-12-31T16:23:04.022Z,7.5
2018-12-31T16:38:12.811Z,7.4
2018-12-31T16:53:30.727Z,7.4
2018-12-31T17:08:43.598Z,7.5
2018-12-31T17:23:56.761Z,7.5
2018-12-31T17:39:10.102Z,7.5
2018-12-31T17:54:23.207Z,7.5
2018-12-31T18:09:36.386Z,7.5
2018-12-31T18:24:49.503Z,7.5
2018-12-31T18:40:02.688Z,7.5
2018-12-31T18:55:13.242Z,7.6
2018-12-31T19:10:29.334Z,7.8
2018-12-31T19:25:42.442Z,7.7
2018-12-31T19:40:55.879Z,7.8
2018-12-31T19:56:00.263Z,7.7
2018-12-31T20:11:22.333Z,7.6
2018-12-31T20:26:35.664Z,7.6
2018-12-31T20:41:48.690Z,7.7
2018-12-31T20:57:02.007Z,7.7
2018-12-31T21:12:14.057Z,7.8
2018-12-31T21:27:28.517Z,7.7
2018-12-31T21:42:41.834Z,7.6
2018-12-31T21:57:54.937Z,7.6
2018-12-31T22:13:00.886Z,7.8
2018-12-31T22:28:21.753Z,7.8
2018-12-31T22:43:34.841Z,7.9
2018-12-31T22:58:48.448Z,8
2018-12-31T23:14:01.537Z,8
2018-12-31T23:29:14.965Z,8.1
2018-12-31T23:44:28.323Z,8.2
2018-12-31T23:59:42.134Z,8.2
